Time;durP1;ratioP1;P1;durP2;ratioP2;P2;SDS_P1;SDS_P2;PMS_P1;PMS_P2;Temp;Humidity;BMP_temperature;BMP_pressure;BME280_temperature;BME280_humidity;BME280_pressure;Samples;Min_cycle;Max_cycle;Signal;HPM_P1;HPM_P2
2023/08/04 00:00:09;;;;;;;13.65;4.80;;;;;;;-148.88;100.00;-17125.47;5036174;28;20022;-77
2023/08/04 00:02:38;;;;;;;11.43;4.75;;;;;;;-148.88;100.00;-17125.47;5037249;28;20036;-77
2023/08/04 00:05:05;;;;;;;10.43;4.53;;;;;;;-148.88;100.00;-17125.47;5036018;28;20021;-78
2023/08/04 00:07:31;;;;;;;7.78;4.35;;;;;;;-148.88;100.00;-17125.47;5037258;28;20037;-77
2023/08/04 00:09:56;;;;;;;10.43;4.88;;;;;;;-148.88;100.00;-17125.47;5037697;28;20368;-77
2023/08/04 00:12:22;;;;;;;11.07;5.32;;;;;;;-148.88;100.00;-17125.47;5037592;28;20022;-78
2023/08/04 00:14:48;;;;;;;10.73;4.80;;;;;;;-148.88;100.00;-17125.47;5040831;28;20034;-77
2023/08/04 00:17:15;;;;;;;14.20;4.38;;;;;;;-148.88;100.00;-17125.47;5039765;28;20055;-77
2023/08/04 00:19:41;;;;;;;16.42;4.72;;;;;;;-148.88;100.00;-17125.47;5037484;28;20061;-78
2023/08/04 00:22:07;;;;;;;10.23;4.65;;;;;;;-148.88;100.00;-17125.47;5037645;28;20022;-78
2023/08/04 00:24:32;;;;;;;10.77;4.70;;;;;;;-148.88;100.00;-17125.47;5036549;28;20026;-77
2023/08/04 00:26:57;;;;;;;12.70;4.45;;;;;;;-148.88;100.00;-17125.47;5037977;28;20065;-78
2023/08/04 00:29:22;;;;;;;12.95;5.10;;;;;;;-148.88;100.00;-17125.47;5037902;28;20104;-78
2023/08/04 00:31:50;;;;;;;14.40;5.32;;;;;;;-148.88;100.00;-17125.47;5036435;28;20349;-78
2023/08/04 00:34:15;;;;;;;13.65;4.90;;;;;;;-148.88;100.00;-17125.47;5037596;28;20032;-78
2023/08/04 00:36:41;;;;;;;10.68;5.25;;;;;;;-148.88;100.00;-17125.47;5035732;28;20021;-77
2023/08/04 00:39:06;;;;;;;9.13;5.35;;;;;;;-148.88;100.00;-17125.47;5036728;28;20029;-77
2023/08/04 00:41:31;;;;;;;13.75;5.22;;;;;;;-148.88;100.00;-17125.47;5036596;28;20456;-77
2023/08/04 00:43:57;;;;;;;13.93;5.38;;;;;;;-148.88;100.00;-17125.47;5036280;28;20032;-77
2023/08/04 00:46:23;;;;;;;14.43;5.93;;;;;;;-148.88;100.00;-17125.47;5036495;28;20029;-78
2023/08/04 00:48:48;;;;;;;13.55;5.45;;;;;;;-148.88;100.00;-17125.47;5036292;28;20021;-77
2023/08/04 00:51:14;;;;;;;12.38;5.13;;;;;;;-148.88;100.00;-17125.47;5037000;28;20071;-77
2023/08/04 00:53:40;;;;;;;10.38;4.80;;;;;;;-148.88;100.00;-17125.47;5039993;28;20403;-78
2023/08/04 00:56:05;;;;;;;12.82;4.72;;;;;;;-148.88;100.00;-17125.47;5038730;28;20105;-78
2023/08/04 00:58:33;;;;;;;11.07;4.45;;;;;;;-148.88;100.00;-17125.47;5037682;28;20072;-77
2023/08/04 01:01:00;;;;;;;11.05;4.85;;;;;;;-148.88;100.00;-17125.47;5037329;28;20480;-77
2023/08/04 01:03:26;;;;;;;11.73;5.13;;;;;;;-148.88;100.00;-17125.47;5036870;28;20029;-77
2023/08/04 01:06:12;;;;;;;12.40;4.85;;;;;;;-148.88;100.00;-17125.47;5036839;28;20075;-76
2023/08/04 01:08:42;;;;;;;10.52;4.22;;;;;;;-148.88;100.00;-17125.47;5036108;28;20025;-78
2023/08/04 01:11:12;;;;;;;13.07;4.95;;;;;;;-148.88;100.00;-17125.47;5034878;28;20026;-78
2023/08/04 01:13:39;;;;;;;8.63;5.05;;;;;;;-148.88;100.00;-17125.47;5036506;28;20013;-77
2023/08/04 01:16:07;;;;;;;14.65;5.00;;;;;;;-148.88;100.00;-17125.47;5036300;28;20519;-77
2023/08/04 01:18:32;;;;;;;8.07;4.18;;;;;;;-148.88;100.00;-17125.47;5034548;28;20499;-77
2023/08/04 01:21:05;;;;;;;10.88;4.80;;;;;;;-148.88;100.00;-17125.47;5035815;28;20025;-78
2023/08/04 01:23:31;;;;;;;14.98;4.72;;;;;;;-148.88;100.00;-17125.47;5036213;28;20528;-77
2023/08/04 01:25:57;;;;;;;7.50;4.13;;;;;;;-148.88;100.00;-17125.47;5035786;28;20071;-77
2023/08/04 01:28:23;;;;;;;9.35;4.80;;;;;;;-148.88;100.00;-17125.47;5035398;28;20447;-76
2023/08/04 01:30:52;;;;;;;8.70;4.68;;;;;;;-148.88;100.00;-17125.47;5035529;28;20029;-77
2023/08/04 01:33:18;;;;;;;9.65;4.50;;;;;;;-148.88;100.00;-17125.47;5034940;28;20026;-78
2023/08/04 01:35:43;;;;;;;14.35;4.80;;;;;;;-148.88;100.00;-17125.47;5036228;28;20083;-78
2023/08/04 01:38:09;;;;;;;16.42;5.28;;;;;;;-148.88;100.00;-17125.47;5034441;28;20021;-77
2023/08/04 01:40:35;;;;;;;12.75;4.80;;;;;;;-148.88;100.00;-17125.47;5035525;28;20035;-78
2023/08/04 01:43:00;;;;;;;11.57;4.70;;;;;;;-148.88;100.00;-17125.47;5035644;28;20025;-76
2023/08/04 01:45:26;;;;;;;9.70;4.25;;;;;;;-148.88;100.00;-17125.47;5034044;28;20075;-77
2023/08/04 01:47:51;;;;;;;10.75;4.63;;;;;;;-148.88;100.00;-17125.47;5035670;28;20149;-77
2023/08/04 01:50:17;;;;;;;10.35;5.03;;;;;;;-148.88;100.00;-17125.47;5035926;28;20484;-77
2023/08/04 01:52:42;;;;;;;11.73;5.78;;;;;;;-148.88;100.00;-17125.47;5014490;22;20096;-86
2023/08/04 01:55:08;;;;;;;19.95;6.10;;;;;;;-148.88;100.00;-17125.47;4978317;28;20504;-86
2023/08/04 01:57:33;;;;;;;12.52;5.90;;;;;;;-148.88;100.00;-17125.47;4978534;28;20123;-86
2023/08/04 01:59:59;;;;;;;18.63;6.55;;;;;;;-148.88;100.00;-17125.47;4995666;28;20489;-86
2023/08/04 02:02:24;;;;;;;12.48;6.25;;;;;;;-148.88;100.00;-17125.47;4991648;28;20072;-86
2023/08/04 02:04:56;;;;;;;9.90;6.68;;;;;;;-148.88;100.00;-17125.47;5055967;23;20120;-85
2023/08/04 02:07:21;;;;;;;14.75;7.50;;;;;;;-148.88;100.00;-17125.47;5017210;28;20121;-86
2023/08/04 02:09:52;;;;;;;13.38;7.30;;;;;;;-148.88;100.00;-17125.47;5032933;28;20108;-86
2023/08/04 02:12:18;;;;;;;14.20;7.90;;;;;;;-148.88;100.00;-17125.47;5016848;28;20519;-86
2023/08/04 02:14:43;;;;;;;17.13;8.13;;;;;;;-148.88;100.00;-17125.47;5019511;23;20046;-76
2023/08/04 02:17:09;;;;;;;15.43;8.73;;;;;;;-148.88;100.00;-17125.47;5014391;28;20029;-75
2023/08/04 02:19:34;;;;;;;16.27;9.13;;;;;;;-148.88;100.00;-17125.47;5014209;28;20463;-75
2023/08/04 02:22:00;;;;;;;14.80;8.70;;;;;;;-148.88;100.00;-17125.47;5014140;28;20018;-75
2023/08/04 02:24:25;;;;;;;14.13;8.75;;;;;;;-148.88;100.00;-17125.47;5014263;28;20014;-75
2023/08/04 02:26:50;;;;;;;19.90;9.18;;;;;;;-148.88;100.00;-17125.47;5014218;28;20030;-76
2023/08/04 02:29:16;;;;;;;16.42;10.10;;;;;;;-148.88;100.00;-17125.47;4996445;28;20056;-75
2023/08/04 02:31:41;;;;;;;19.73;9.73;;;;;;;-148.88;100.00;-17125.47;5013956;28;20105;-75
2023/08/04 02:34:07;;;;;;;15.43;10.20;;;;;;;-148.88;100.00;-17125.47;5014029;28;20018;-75
2023/08/04 02:36:32;;;;;;;18.05;10.00;;;;;;;-148.88;100.00;-17125.47;5013944;28;20053;-75
2023/08/04 02:38:58;;;;;;;18.20;10.00;;;;;;;-148.88;100.00;-17125.47;5013856;28;20025;-75
2023/08/04 02:41:23;;;;;;;20.58;11.10;;;;;;;-148.88;100.00;-17125.47;5013865;28;20025;-75
2023/08/04 02:43:48;;;;;;;14.40;10.18;;;;;;;-148.88;100.00;-17125.47;5014033;28;20029;-75
2023/08/04 02:46:14;;;;;;;20.52;10.95;;;;;;;-148.88;100.00;-17125.47;5013913;28;20030;-75
2023/08/04 02:48:40;;;;;;;15.77;10.05;;;;;;;-148.88;100.00;-17125.47;5013689;28;20065;-75
2023/08/04 02:51:10;;;;;;;15.98;10.48;;;;;;;-148.88;100.00;-17125.47;4996016;28;20029;-75
2023/08/04 02:53:43;;;;;;;21.17;10.82;;;;;;;-148.88;100.00;-17125.47;5013719;28;20097;-75
2023/08/04 02:56:15;;;;;;;19.15;11.05;;;;;;;-148.88;100.00;-17125.47;5013573;28;20160;-75
2023/08/04 02:58:43;;;;;;;16.30;11.43;;;;;;;-148.88;100.00;-17125.47;5013582;28;20034;-75
2023/08/04 03:01:08;;;;;;;20.75;11.63;;;;;;;-148.88;100.00;-17125.47;5013547;28;20025;-75
2023/08/04 03:03:34;;;;;;;20.42;11.60;;;;;;;-148.88;100.00;-17125.47;4995943;28;20079;-75
2023/08/04 03:06:01;;;;;;;19.15;12.15;;;;;;;-148.88;100.00;-17125.47;4995867;28;20022;-75
2023/08/04 03:08:27;;;;;;;20.60;12.57;;;;;;;-148.88;100.00;-17125.47;5013402;28;20033;-75
2023/08/04 03:10:53;;;;;;;17.85;11.75;;;;;;;-148.88;100.00;-17125.47;5013711;28;20025;-75
2023/08/04 03:13:18;;;;;;;20.65;12.05;;;;;;;-148.88;100.00;-17125.47;4995516;28;20033;-75
2023/08/04 03:15:44;;;;;;;19.95;11.65;;;;;;;-148.88;100.00;-17125.47;4995855;28;20488;-75
2023/08/04 03:18:09;;;;;;;20.88;11.98;;;;;;;-148.88;100.00;-17125.47;5013445;28;20030;-75
2023/08/04 03:20:41;;;;;;;18.63;12.10;;;;;;;-148.88;100.00;-17125.47;4996126;28;20086;-75
2023/08/04 03:23:07;;;;;;;17.08;11.43;;;;;;;-148.88;100.00;-17125.47;5013526;28;20026;-75
2023/08/04 03:25:33;;;;;;;19.08;11.13;;;;;;;-148.88;100.00;-17125.47;5013863;28;20026;-75
2023/08/04 03:27:59;;;;;;;16.60;11.10;;;;;;;-148.88;100.00;-17125.47;5013371;28;20048;-74
2023/08/04 03:30:25;;;;;;;21.58;11.82;;;;;;;-148.88;100.00;-17125.47;5013269;28;20507;-75
2023/08/04 03:32:50;;;;;;;18.58;11.23;;;;;;;-148.88;100.00;-17125.47;5013161;28;20029;-74
2023/08/04 03:35:16;;;;;;;25.85;12.90;;;;;;;-148.88;100.00;-17125.47;5013137;28;20164;-74
2023/08/04 03:37:41;;;;;;;17.63;11.57;;;;;;;-148.88;100.00;-17125.47;5013016;28;20057;-74
2023/08/04 03:40:10;;;;;;;18.40;11.30;;;;;;;-148.88;100.00;-17125.47;5013106;28;20018;-74
2023/08/04 03:42:38;;;;;;;20.65;11.10;;;;;;;-148.88;100.00;-17125.47;5013053;28;20511;-74
2023/08/04 03:45:04;;;;;;;20.67;12.05;;;;;;;-148.88;100.00;-17125.47;4995392;28;20018;-74
2023/08/04 03:47:29;;;;;;;20.77;11.38;;;;;;;-148.88;100.00;-17125.47;4995393;28;20064;-75
2023/08/04 03:49:56;;;;;;;17.58;11.30;;;;;;;-148.88;100.00;-17125.47;5013059;28;20021;-75
2023/08/04 03:52:22;;;;;;;19.83;10.75;;;;;;;-148.88;100.00;-17125.47;5012938;28;20034;-75
2023/08/04 03:54:47;;;;;;;16.58;10.60;;;;;;;-148.88;100.00;-17125.47;5012932;28;20024;-75
2023/08/04 03:57:12;;;;;;;18.85;11.00;;;;;;;-148.88;100.00;-17125.47;5012894;28;20441;-74
2023/08/04 03:59:38;;;;;;;19.88;11.55;;;;;;;-148.88;100.00;-17125.47;5013002;28;20505;-75
2023/08/04 04:02:03;;;;;;;17.83;11.52;;;;;;;-148.88;100.00;-17125.47;5013142;28;20022;-74
2023/08/04 04:04:29;;;;;;;19.73;11.70;;;;;;;-148.88;100.00;-17125.47;5012818;28;20518;-74
2023/08/04 04:06:54;;;;;;;16.50;11.15;;;;;;;-148.88;100.00;-17125.47;5013023;28;20072;-75
2023/08/04 04:09:19;;;;;;;14.57;11.20;;;;;;;-148.88;100.00;-17125.47;5012854;28;20025;-74
2023/08/04 04:11:45;;;;;;;18.58;11.60;;;;;;;-148.88;100.00;-17125.47;5012764;28;20115;-74
2023/08/04 04:14:10;;;;;;;15.35;10.50;;;;;;;-148.88;100.00;-17125.47;5012732;28;20037;-74
2023/08/04 04:16:36;;;;;;;20.23;11.43;;;;;;;-148.88;100.00;-17125.47;4995023;28;20033;-74
2023/08/04 04:19:01;;;;;;;19.33;11.05;;;;;;;-148.88;100.00;-17125.47;4995110;28;20393;-75
2023/08/04 04:21:26;;;;;;;17.90;10.88;;;;;;;-148.88;100.00;-17125.47;5012714;28;20057;-75
2023/08/04 04:23:52;;;;;;;15.57;10.15;;;;;;;-148.88;100.00;-17125.47;5012851;28;20018;-76
2023/08/04 04:26:17;;;;;;;19.75;11.38;;;;;;;-148.88;100.00;-17125.47;5014778;28;20062;-75
2023/08/04 04:28:42;;;;;;;18.02;11.35;;;;;;;-148.88;100.00;-17125.47;5016294;28;20030;-74
2023/08/04 04:31:08;;;;;;;17.05;11.25;;;;;;;-148.88;100.00;-17125.47;5016213;28;20393;-75
2023/08/04 04:33:33;;;;;;;19.75;11.65;;;;;;;-148.88;100.00;-17125.47;5016283;28;20044;-75
2023/08/04 04:35:58;;;;;;;20.08;11.35;;;;;;;-148.88;100.00;-17125.47;4998514;28;20110;-75
2023/08/04 04:38:28;;;;;;;17.88;12.13;;;;;;;-148.88;100.00;-17125.47;5016013;28;20124;-75
2023/08/04 04:41:01;;;;;;;18.27;11.88;;;;;;;-148.88;100.00;-17125.47;5016190;28;20022;-74
2023/08/04 04:43:27;;;;;;;18.73;12.23;;;;;;;-148.88;100.00;-17125.47;5015989;28;20047;-74
2023/08/04 04:45:54;;;;;;;16.38;11.95;;;;;;;-148.88;100.00;-17125.47;5015900;28;20065;-74
2023/08/04 04:48:20;;;;;;;21.17;12.77;;;;;;;-148.88;100.00;-17125.47;5015870;28;20026;-74
2023/08/04 04:50:45;;;;;;;18.73;11.85;;;;;;;-148.88;100.00;-17125.47;5015916;28;20038;-75
2023/08/04 04:53:10;;;;;;;21.08;12.43;;;;;;;-148.88;100.00;-17125.47;5015798;28;20366;-74
2023/08/04 04:55:36;;;;;;;19.15;12.80;;;;;;;-148.88;100.00;-17125.47;5016064;28;20054;-74
2023/08/04 04:58:02;;;;;;;18.08;12.63;;;;;;;-148.88;100.00;-17125.47;4998156;28;20113;-75
2023/08/04 05:00:27;;;;;;;22.85;12.80;;;;;;;-148.88;100.00;-17125.47;5015938;28;20444;-75
2023/08/04 05:02:53;;;;;;;19.50;12.93;;;;;;;-148.88;100.00;-17125.47;5015667;28;20022;-75
2023/08/04 05:05:18;;;;;;;19.42;12.80;;;;;;;-148.88;100.00;-17125.47;5015679;28;20026;-74
2023/08/04 05:07:43;;;;;;;26.60;13.15;;;;;;;-148.88;100.00;-17125.47;4997859;28;20033;-75
2023/08/04 05:10:09;;;;;;;21.33;14.30;;;;;;;-148.88;100.00;-17125.47;5015593;28;20029;-75
2023/08/04 05:12:35;;;;;;;18.90;14.10;;;;;;;-148.88;100.00;-17125.47;5015489;28;20048;-75
2023/08/04 05:15:00;;;;;;;21.75;14.65;;;;;;;-148.88;100.00;-17125.47;5015276;28;20424;-75
2023/08/04 05:17:26;;;;;;;23.02;14.13;;;;;;;-148.88;100.00;-17125.47;5015227;28;20025;-75
2023/08/04 05:19:51;;;;;;;20.63;14.68;;;;;;;-148.88;100.00;-17125.47;5015585;28;20022;-75
2023/08/04 05:22:16;;;;;;;22.77;14.55;;;;;;;-148.88;100.00;-17125.47;5015520;28;20061;-74
2023/08/04 05:24:42;;;;;;;22.17;15.15;;;;;;;-148.88;100.00;-17125.47;5015270;28;20018;-75
2023/08/04 05:27:08;;;;;;;21.20;14.43;;;;;;;-148.88;100.00;-17125.47;5015167;28;20038;-75
2023/08/04 05:29:33;;;;;;;21.10;13.77;;;;;;;-148.88;100.00;-17125.47;5015248;28;20030;-75
2023/08/04 05:31:59;;;;;;;19.00;13.02;;;;;;;-148.88;100.00;-17125.47;5014986;28;20077;-75
2023/08/04 05:34:24;;;;;;;19.63;13.25;;;;;;;-148.88;100.00;-17125.47;5014865;28;20030;-74
2023/08/04 05:36:49;;;;;;;20.92;14.20;;;;;;;-148.88;100.00;-17125.47;5014615;28;20037;-75
2023/08/04 05:39:15;;;;;;;21.08;13.55;;;;;;;-148.88;100.00;-17125.47;4997488;28;20033;-76
2023/08/04 05:41:44;;;;;;;23.35;14.15;;;;;;;-148.88;100.00;-17125.47;4997289;28;20021;-75
2023/08/04 05:44:09;;;;;;;17.35;12.35;;;;;;;-148.88;100.00;-17125.47;5014713;28;20026;-75
2023/08/04 05:46:34;;;;;;;22.20;13.38;;;;;;;-148.88;100.00;-17125.47;4997145;28;20030;-74
2023/08/04 05:49:00;;;;;;;23.08;13.73;;;;;;;-148.88;100.00;-17125.47;5014682;28;20026;-74
2023/08/04 05:51:25;;;;;;;19.92;11.32;;;;;;;-148.88;100.00;-17125.47;5014958;28;20026;-74
2023/08/04 05:53:50;;;;;;;21.17;12.02;;;;;;;-148.88;100.00;-17125.47;5014612;28;20022;-75
2023/08/04 05:56:16;;;;;;;21.23;10.80;;;;;;;-148.88;100.00;-17125.47;5015056;28;20040;-75
2023/08/04 05:58:41;;;;;;;16.00;10.35;;;;;;;-148.88;100.00;-17125.47;5014351;28;20029;-74
2023/08/04 06:01:06;;;;;;;18.42;11.27;;;;;;;-148.88;100.00;-17125.47;5014416;28;20392;-74
2023/08/04 06:03:32;;;;;;;16.70;10.25;;;;;;;-148.88;100.00;-17125.47;5014704;28;20049;-75
2023/08/04 06:05:59;;;;;;;15.07;9.25;;;;;;;-148.88;100.00;-17125.47;5014345;28;20109;-75
2023/08/04 06:08:24;;;;;;;19.25;9.57;;;;;;;-148.88;100.00;-17125.47;5014295;28;20030;-74
2023/08/04 06:10:50;;;;;;;18.80;9.48;;;;;;;-148.88;100.00;-17125.47;5014233;28;20028;-75
2023/08/04 06:13:15;;;;;;;13.98;8.38;;;;;;;-148.88;100.00;-17125.47;5014237;28;20037;-75
2023/08/04 06:15:41;;;;;;;13.00;8.40;;;;;;;-148.88;100.00;-17125.47;4996536;28;20411;-75
2023/08/04 06:18:06;;;;;;;14.80;8.70;;;;;;;-148.88;100.00;-17125.47;5014065;28;20433;-75
2023/08/04 06:20:32;;;;;;;16.17;8.50;;;;;;;-148.88;100.00;-17125.47;5014181;28;20049;-74
2023/08/04 06:22:57;;;;;;;14.25;7.80;;;;;;;-148.88;100.00;-17125.47;5014384;28;20052;-75
2023/08/04 06:25:23;;;;;;;12.85;7.55;;;;;;;-148.88;100.00;-17125.47;5013854;28;20026;-74
2023/08/04 06:27:49;;;;;;;16.60;7.68;;;;;;;-148.88;100.00;-17125.47;5014127;28;20026;-74
2023/08/04 06:30:15;;;;;;;12.73;7.32;;;;;;;-148.88;100.00;-17125.47;4996424;28;20110;-75
2023/08/04 06:32:41;;;;;;;15.18;7.68;;;;;;;-148.88;100.00;-17125.47;5014117;28;20018;-75
2023/08/04 06:35:07;;;;;;;14.48;7.53;;;;;;;-148.88;100.00;-17125.47;4996334;28;20018;-74
2023/08/04 06:37:33;;;;;;;14.48;7.63;;;;;;;-148.88;100.00;-17125.47;5013759;28;20026;-75
2023/08/04 06:39:59;;;;;;;17.67;7.80;;;;;;;-148.88;100.00;-17125.47;5013851;28;20026;-74
2023/08/04 06:42:24;;;;;;;12.32;7.00;;;;;;;-148.88;100.00;-17125.47;5013835;28;20539;-74
2023/08/04 06:44:50;;;;;;;12.38;7.20;;;;;;;-148.88;100.00;-17125.47;5013972;28;20022;-74
2023/08/04 06:47:15;;;;;;;11.15;7.57;;;;;;;-148.88;100.00;-17125.47;5013851;28;20137;-74
2023/08/04 06:49:42;;;;;;;11.05;7.38;;;;;;;-148.88;100.00;-17125.47;5014040;28;20049;-74
2023/08/04 06:52:08;;;;;;;11.35;6.97;;;;;;;-148.88;100.00;-17125.47;4998411;28;20033;-75
2023/08/04 06:54:33;;;;;;;12.88;6.78;;;;;;;-148.88;100.00;-17125.47;5013842;28;20018;-74
2023/08/04 06:56:59;;;;;;;14.65;6.93;;;;;;;-148.88;100.00;-17125.47;5013484;28;20045;-74
2023/08/04 06:59:24;;;;;;;12.63;6.97;;;;;;;-148.88;100.00;-17125.47;5013531;28;20432;-75
2023/08/04 07:01:50;;;;;;;10.13;6.43;;;;;;;-148.88;100.00;-17125.47;4995887;28;20404;-75
2023/08/04 07:04:15;;;;;;;16.73;7.00;;;;;;;-148.88;100.00;-17125.47;5013654;28;20018;-75
2023/08/04 07:06:40;;;;;;;14.10;7.10;;;;;;;-148.88;100.00;-17125.47;5013375;28;20481;-74
2023/08/04 07:09:06;;;;;;;13.48;6.72;;;;;;;-148.88;100.00;-17125.47;5013541;28;20507;-75
2023/08/04 07:11:31;;;;;;;10.93;6.50;;;;;;;-148.88;100.00;-17125.47;5013520;28;20033;-74
2023/08/04 07:13:57;;;;;;;7.80;5.32;;;;;;;-148.88;100.00;-17125.47;5013305;28;20060;-75
2023/08/04 07:16:24;;;;;;;12.65;5.75;;;;;;;-148.88;100.00;-17125.47;5013336;28;20054;-74
2023/08/04 07:18:50;;;;;;;9.57;5.15;;;;;;;-148.88;100.00;-17125.47;5013261;28;20022;-74
2023/08/04 07:21:15;;;;;;;13.18;5.80;;;;;;;-148.88;100.00;-17125.47;5013284;28;20029;-74
2023/08/04 07:23:41;;;;;;;11.40;5.00;;;;;;;-148.88;100.00;-17125.47;5013119;28;20109;-74
2023/08/04 07:26:08;;;;;;;7.00;4.20;;;;;;;-148.88;100.00;-17125.47;4995634;28;20504;-74
2023/08/04 07:28:35;;;;;;;9.07;4.28;;;;;;;-148.88;100.00;-17125.47;5013187;28;20034;-75
2023/08/04 07:31:08;;;;;;;10.30;4.55;;;;;;;-148.88;100.00;-17125.47;5013087;28;20135;-74
2023/08/04 07:33:34;;;;;;;8.90;4.57;;;;;;;-148.88;100.00;-17125.47;5013153;28;20026;-74
2023/08/04 07:36:00;;;;;;;8.10;4.35;;;;;;;-148.88;100.00;-17125.47;5013102;28;20034;-74
2023/08/04 07:38:29;;;;;;;8.80;4.50;;;;;;;-148.88;100.00;-17125.47;5012978;28;20038;-74
2023/08/04 07:40:56;;;;;;;7.10;4.07;;;;;;;-148.88;100.00;-17125.47;5013355;28;20022;-75
2023/08/04 07:43:21;;;;;;;8.07;5.15;;;;;;;-148.88;100.00;-17125.47;4995481;28;20030;-74
2023/08/04 07:45:47;;;;;;;8.00;4.20;;;;;;;-148.88;100.00;-17125.47;5013325;28;20029;-75
2023/08/04 07:48:12;;;;;;;10.13;3.88;;;;;;;-148.88;100.00;-17125.47;5012886;28;20076;-74
2023/08/04 07:50:46;;;;;;;7.95;3.30;;;;;;;-148.88;100.00;-17125.47;4995292;28;20028;-74
2023/08/04 07:53:12;;;;;;;5.28;3.00;;;;;;;-148.88;100.00;-17125.47;4995367;28;20037;-75
2023/08/04 07:55:39;;;;;;;9.27;3.05;;;;;;;-148.88;100.00;-17125.47;5012946;28;20392;-75
2023/08/04 07:58:04;;;;;;;6.75;3.13;;;;;;;-148.88;100.00;-17125.47;5012809;28;20026;-74
2023/08/04 08:00:30;;;;;;;5.95;3.13;;;;;;;-148.88;100.00;-17125.47;4997684;28;20088;-75
2023/08/04 08:02:58;;;;;;;6.53;2.70;;;;;;;-148.88;100.00;-17125.47;5017649;28;20038;-73
2023/08/04 08:05:24;;;;;;;8.73;2.97;;;;;;;-148.88;100.00;-17125.47;5001469;28;20373;-75
2023/08/04 08:07:50;;;;;;;5.75;2.80;;;;;;;-148.88;100.00;-17125.47;5016667;28;20499;-74
2023/08/04 08:10:17;;;;;;;7.88;3.25;;;;;;;-148.88;100.00;-17125.47;5016449;28;20029;-75
2023/08/04 08:12:42;;;;;;;7.93;2.97;;;;;;;-148.88;100.00;-17125.47;4999016;28;20057;-75
2023/08/04 08:15:08;;;;;;;6.50;2.80;;;;;;;-148.88;100.00;-17125.47;5016432;28;20164;-74
2023/08/04 08:17:33;;;;;;;7.43;2.95;;;;;;;-148.88;100.00;-17125.47;4998938;28;20370;-74
2023/08/04 08:19:59;;;;;;;6.57;3.10;;;;;;;-148.88;100.00;-17125.47;5016604;28;20064;-74
2023/08/04 08:22:24;;;;;;;7.00;2.97;;;;;;;-148.88;100.00;-17125.47;5016391;28;20025;-74
2023/08/04 08:24:53;;;;;;;8.73;2.88;;;;;;;-148.88;100.00;-17125.47;5016266;28;20152;-74
2023/08/04 08:27:19;;;;;;;6.82;2.70;;;;;;;-148.88;100.00;-17125.47;5016110;28;20108;-74
2023/08/04 08:29:44;;;;;;;5.57;2.35;;;;;;;-148.88;100.00;-17125.47;5016116;28;20145;-74
2023/08/04 08:32:10;;;;;;;6.78;2.45;;;;;;;-148.88;100.00;-17125.47;5016125;28;20030;-74
2023/08/04 08:34:35;;;;;;;5.05;2.13;;;;;;;-148.88;100.00;-17125.47;5016024;28;20025;-74
2023/08/04 08:37:02;;;;;;;5.13;2.28;;;;;;;-148.88;100.00;-17125.47;5015979;28;20022;-74
2023/08/04 08:39:29;;;;;;;5.00;2.30;;;;;;;-148.88;100.00;-17125.47;5016165;28;20026;-74
2023/08/04 08:41:54;;;;;;;4.72;2.60;;;;;;;-148.88;100.00;-17125.47;4998576;28;20098;-74
2023/08/04 08:44:19;;;;;;;4.65;2.33;;;;;;;-148.88;100.00;-17125.47;5015880;28;20025;-75
2023/08/04 08:46:45;;;;;;;6.40;2.20;;;;;;;-148.88;100.00;-17125.47;5015862;28;20094;-75
2023/08/04 08:49:11;;;;;;;7.10;3.30;;;;;;;-148.88;100.00;-17125.47;5015951;28;20026;-75
2023/08/04 08:51:41;;;;;;;8.20;3.78;;;;;;;-148.88;100.00;-17125.47;5015840;28;20021;-74
2023/08/04 08:54:08;;;;;;;6.57;4.20;;;;;;;-148.88;100.00;-17125.47;5016251;28;20018;-74
2023/08/04 08:56:34;;;;;;;8.90;4.38;;;;;;;-148.88;100.00;-17125.47;5015628;28;20032;-74
2023/08/04 08:59:01;;;;;;;6.55;3.80;;;;;;;-148.88;100.00;-17125.47;5015632;28;20026;-74
2023/08/04 09:01:26;;;;;;;7.15;4.03;;;;;;;-148.88;100.00;-17125.47;5015888;28;20030;-74
2023/08/04 09:03:52;;;;;;;7.15;3.30;;;;;;;-148.88;100.00;-17125.47;4997887;28;20511;-74
2023/08/04 09:06:17;;;;;;;7.32;3.75;;;;;;;-148.88;100.00;-17125.47;5015647;28;20032;-74
2023/08/04 09:08:43;;;;;;;6.63;4.45;;;;;;;-148.88;100.00;-17125.47;5015677;28;20029;-74
2023/08/04 09:11:08;;;;;;;6.43;4.13;;;;;;;-148.88;100.00;-17125.47;5014810;28;20101;-74
2023/08/04 09:13:37;;;;;;;7.55;4.88;;;;;;;-148.88;100.00;-17125.47;5015680;28;20101;-74
2023/08/04 09:16:04;;;;;;;8.77;5.32;;;;;;;-148.88;100.00;-17125.47;5015311;28;20058;-74
2023/08/04 09:18:39;;;;;;;8.82;6.20;;;;;;;-148.88;100.00;-17125.47;5015291;28;20048;-75
2023/08/04 09:21:07;;;;;;;6.65;5.93;;;;;;;-148.88;100.00;-17125.47;4997733;28;20050;-74
2023/08/04 09:23:36;;;;;;;8.35;5.78;;;;;;;-148.88;100.00;-17125.47;5015376;28;20026;-74
2023/08/04 09:26:02;;;;;;;6.68;4.68;;;;;;;-148.88;100.00;-17125.47;5015181;28;20026;-74
2023/08/04 09:28:28;;;;;;;5.63;4.18;;;;;;;-148.88;100.00;-17125.47;5015040;28;20091;-74
2023/08/04 09:31:33;;;;;;;7.50;3.53;;;;;;;-148.88;100.00;-17125.47;5015044;28;20018;-74
2023/08/04 09:33:58;;;;;;;6.55;3.22;;;;;;;-148.88;100.00;-17125.47;4975687;28;20087;-74
2023/08/04 09:36:23;;;;;;;4.90;3.00;;;;;;;-148.88;100.00;-17125.47;5014926;28;20037;-73
2023/08/04 09:38:49;;;;;;;4.70;2.17;;;;;;;-148.88;100.00;-17125.47;4997437;28;20018;-74
2023/08/04 09:41:15;;;;;;;6.43;2.63;;;;;;;-148.88;100.00;-17125.47;5014874;28;20160;-74
2023/08/04 09:43:48;;;;;;;4.60;2.30;;;;;;;-148.88;100.00;-17125.47;5014765;28;20022;-75
2023/08/04 09:46:14;;;;;;;5.70;2.22;;;;;;;-148.88;100.00;-17125.47;5014930;28;20034;-74
2023/08/04 09:48:40;;;;;;;7.22;2.22;;;;;;;-148.88;99.02;-17125.47;5014653;28;20481;-73
2023/08/04 09:51:16;;;;;;;4.45;1.80;;;;;;;-148.88;97.28;-17125.47;5014615;28;20040;-74
2023/08/04 09:53:44;;;;;;;4.70;1.80;;;;;;;-148.88;99.93;-17125.47;4997224;28;20025;-74
2023/08/04 09:56:18;;;;;;;4.90;1.80;;;;;;;-148.88;98.65;-17125.47;5014674;28;20053;-75
2023/08/04 09:58:45;;;;;;;5.20;1.90;;;;;;;-148.88;99.51;-17125.47;5014500;28;20504;-75
2023/08/04 10:01:12;;;;;;;5.35;1.83;;;;;;;-148.88;99.36;-17125.47;5014454;28;20395;-75
2023/08/04 10:03:41;;;;;;;4.60;1.67;;;;;;;-148.88;99.49;-17125.47;5014453;28;20022;-75
2023/08/04 10:06:07;;;;;;;3.50;1.65;;;;;;;-148.88;99.99;-17125.47;4996794;28;20030;-75
2023/08/04 10:08:39;;;;;;;4.63;1.65;;;;;;;-148.88;98.98;-17125.47;5014268;28;20454;-74
2023/08/04 10:11:05;;;;;;;6.20;2.30;;;;;;;-148.88;97.96;-17125.47;4996913;28;20018;-75
2023/08/04 10:13:33;;;;;;;3.33;1.42;;;;;;;-148.88;96.62;-17125.47;5014266;28;20021;-75
2023/08/04 10:16:03;;;;;;;4.47;1.60;;;;;;;-148.88;96.49;-17125.47;5014048;28;20033;-74
2023/08/04 10:18:55;;;;;;;3.90;1.50;;;;;;;-148.88;98.32;-17125.47;5013994;28;20112;-74
2023/08/04 10:21:31;;;;;;;8.15;2.25;;;;;;;-148.88;99.28;-17125.47;5014503;28;20392;-74
2023/08/04 10:24:02;;;;;;;6.13;1.67;;;;;;;-148.88;99.47;-17125.47;5013159;28;20092;-74
2023/08/04 10:26:31;;;;;;;5.28;1.50;;;;;;;-148.88;100.00;-17125.47;5014078;28;20034;-75
2023/08/04 10:29:07;;;;;;;6.97;1.70;;;;;;;-148.88;100.00;-17125.47;5014013;28;20036;-75
2023/08/04 10:31:41;;;;;;;4.72;1.63;;;;;;;-148.88;99.47;-17125.47;4996675;28;20029;-75
2023/08/04 10:34:31;;;;;;;3.78;1.60;;;;;;;-148.88;98.55;-17125.47;5013885;28;20108;-75
2023/08/04 10:37:04;;;;;;;3.08;1.25;;;;;;;-148.88;93.78;-17125.47;5014110;28;20034;-74
2023/08/04 10:39:37;;;;;;;3.65;1.58;;;;;;;-148.88;92.77;-17125.47;5013930;28;20029;-74
2023/08/04 10:42:08;;;;;;;4.97;1.40;;;;;;;-148.88;93.86;-17125.47;5013812;28;20026;-74
2023/08/04 10:45:04;;;;;;;3.40;1.23;;;;;;;-148.88;93.54;-17125.47;5013810;28;20022;-75
2023/08/04 10:47:53;;;;;;;2.90;1.30;;;;;;;-148.88;94.15;-17125.47;5013725;28;20030;-74
2023/08/04 10:50:18;;;;;;;2.30;1.10;;;;;;;-148.88;93.09;-17125.47;5013665;28;20033;-74
2023/08/04 10:52:44;;;;;;;2.58;1.50;;;;;;;-148.88;91.99;-17125.47;5013742;28;20030;-74